createdAt,value
2023-11-07T00:02:27.140Z,8.12
2023-11-07T00:04:54.029Z,8.04
2023-11-07T00:07:24.398Z,8.13
2023-11-07T00:09:51.449Z,8.15
2023-11-07T00:12:18.417Z,8.16
2023-11-07T00:14:45.684Z,8.21
2023-11-07T00:17:12.104Z,8.11
2023-11-07T00:19:38.833Z,8.21
2023-11-07T00:22:05.779Z,8.18
2023-11-07T00:24:32.320Z,8.20
2023-11-07T00:26:59.139Z,8.18
2023-11-07T00:29:26.300Z,8.11
2023-11-07T00:31:53.541Z,8.22
2023-11-07T00:34:21.372Z,8.05
2023-11-07T00:36:48.418Z,8.15
2023-11-07T00:39:18.105Z,8.19
2023-11-07T00:41:44.800Z,8.23
2023-11-07T00:44:11.874Z,8.20
2023-11-07T00:46:38.822Z,8.21
2023-11-07T00:49:06.492Z,8.19
2023-11-07T00:51:33.266Z,8.31
2023-11-07T00:54:00.481Z,8.27
2023-11-07T00:56:27.117Z,8.16
2023-11-07T00:58:53.801Z,8.23
2023-11-07T01:01:20.461Z,8.15
2023-11-07T01:03:47.308Z,8.26
2023-11-07T01:06:13.991Z,8.27
2023-11-07T01:08:40.571Z,8.27
2023-11-07T01:11:07.617Z,8.23
2023-11-07T01:13:34.059Z,8.24
2023-11-07T01:16:00.620Z,8.20
2023-11-07T01:18:27.293Z,8.09
2023-11-07T01:20:53.850Z,8.19
2023-11-07T01:23:20.345Z,8.10
2023-11-07T01:25:46.777Z,8.21
2023-11-07T01:28:13.362Z,8.18
2023-11-07T01:30:39.992Z,8.25
2023-11-07T01:33:06.678Z,8.21
2023-11-07T01:35:33.564Z,8.27
2023-11-07T01:38:00.042Z,8.25
2023-11-07T01:40:28.865Z,8.16
2023-11-07T01:42:56.662Z,8.23
2023-11-07T01:45:23.242Z,8.19
2023-11-07T01:47:50.878Z,8.22
2023-11-07T01:50:17.953Z,8.13
2023-11-07T01:52:44.505Z,8.19
2023-11-07T01:55:17.607Z,8.25
2023-11-07T01:57:45.847Z,8.26
2023-11-07T02:00:13.807Z,8.23
2023-11-07T02:02:41.318Z,8.25
2023-11-07T02:05:10.926Z,8.18
2023-11-07T02:07:40.828Z,8.18
2023-11-07T02:10:08.002Z,8.26
2023-11-07T02:12:34.714Z,8.21
2023-11-07T02:15:35.598Z,8.07
2023-11-07T02:18:02.996Z,8.08
2023-11-07T02:20:31.918Z,8.21
2023-11-07T02:23:10.512Z,8.23
2023-11-07T02:25:40.047Z,8.23
2023-11-07T02:28:07.692Z,8.30
2023-11-07T02:30:34.347Z,8.25
2023-11-07T02:33:06.000Z,8.34
2023-11-07T02:35:33.695Z,8.29
2023-11-07T02:38:00.990Z,8.34
2023-11-07T02:40:27.542Z,8.41
2023-11-07T02:42:54.250Z,8.45
2023-11-07T02:45:21.207Z,8.35
2023-11-07T02:47:47.851Z,8.49
2023-11-07T02:50:14.469Z,8.53
2023-11-07T02:52:41.837Z,8.61
2023-11-07T02:55:08.649Z,8.57
2023-11-07T02:57:35.517Z,8.51
2023-11-07T03:00:02.776Z,8.50
2023-11-07T03:02:29.502Z,8.57
2023-11-07T03:04:57.058Z,8.47
2023-11-07T03:07:23.701Z,8.53
2023-11-07T03:09:50.192Z,8.53
2023-11-07T03:12:17.393Z,8.57
2023-11-07T03:14:44.353Z,8.58
2023-11-07T03:17:11.260Z,8.55
2023-11-07T03:19:37.945Z,8.69
2023-11-07T03:22:04.875Z,8.61
2023-11-07T03:24:31.363Z,8.64
2023-11-07T03:26:59.545Z,8.57
2023-11-07T03:29:25.978Z,8.52
2023-11-07T03:31:54.620Z,8.51
2023-11-07T03:34:21.133Z,8.62
2023-11-07T03:36:47.917Z,8.54
2023-11-07T03:39:14.411Z,8.67
2023-11-07T03:41:42.543Z,8.56
2023-11-07T03:44:09.162Z,8.57
2023-11-07T03:46:35.747Z,8.50
2023-11-07T03:49:02.409Z,8.55
2023-11-07T03:51:29.444Z,8.69
2023-11-07T03:53:56.242Z,8.60
2023-11-07T03:56:23.263Z,8.66
2023-11-07T03:58:49.734Z,8.58
2023-11-07T04:01:16.606Z,8.50
2023-11-07T04:03:43.187Z,8.60
2023-11-07T04:06:10.054Z,8.57
2023-11-07T04:08:36.759Z,8.64
2023-11-07T04:11:03.927Z,8.64
2023-11-07T04:13:31.062Z,8.58
2023-11-07T04:15:58.279Z,8.61
2023-11-07T04:18:25.052Z,8.59
2023-11-07T04:20:53.030Z,8.59
2023-11-07T04:23:19.694Z,8.71
2023-11-07T04:25:47.409Z,8.68
2023-11-07T04:28:13.852Z,8.57
2023-11-07T04:30:40.482Z,8.70
2023-11-07T04:33:07.859Z,8.64
2023-11-07T04:35:34.537Z,8.66
2023-11-07T04:38:01.025Z,8.78
2023-11-07T04:40:27.518Z,8.88
2023-11-07T04:42:54.018Z,8.92
2023-11-07T04:45:22.973Z,8.94
2023-11-07T04:47:50.191Z,8.97
2023-11-07T04:50:18.541Z,8.89
2023-11-07T04:52:44.977Z,8.99
2023-11-07T04:55:12.767Z,9.03
2023-11-07T04:57:40.310Z,9.03
2023-11-07T05:00:11.925Z,9.07
2023-11-07T05:02:38.797Z,9.04
2023-11-07T05:05:06.331Z,9.08
2023-11-07T05:07:33.002Z,9.10
2023-11-07T05:09:59.801Z,9.15
2023-11-07T05:12:26.411Z,9.09
2023-11-07T05:14:53.106Z,9.13
2023-11-07T05:17:20.830Z,9.22
2023-11-07T05:19:47.615Z,9.06
2023-11-07T05:22:14.064Z,9.14
2023-11-07T05:24:41.282Z,9.23
2023-11-07T05:27:07.992Z,9.30
2023-11-07T05:29:34.448Z,9.25
2023-11-07T05:32:00.912Z,9.20
2023-11-07T05:34:27.404Z,9.18
2023-11-07T05:36:53.845Z,9.10
2023-11-07T05:39:20.311Z,9.18
2023-11-07T05:41:47.022Z,9.23
2023-11-07T05:44:13.458Z,9.24
2023-11-07T05:46:40.086Z,9.22
2023-11-07T05:49:08.689Z,9.17
2023-11-07T05:51:35.410Z,9.18
2023-11-07T05:54:01.952Z,9.19
2023-11-07T05:56:28.414Z,9.15
2023-11-07T05:58:54.824Z,9.09
2023-11-07T06:01:21.254Z,9.16
2023-11-07T06:03:50.101Z,9.19
2023-11-07T06:06:16.774Z,9.09
2023-11-07T06:08:43.307Z,9.03
2023-11-07T06:11:09.888Z,8.89
2023-11-07T06:13:36.459Z,8.80
2023-11-07T06:16:06.492Z,8.75
2023-11-07T06:18:34.021Z,8.78
2023-11-07T06:21:00.630Z,8.81
2023-11-07T06:23:27.231Z,8.85
2023-11-07T06:25:53.678Z,8.83
2023-11-07T06:28:20.095Z,8.75
2023-11-07T06:30:46.535Z,8.81
2023-11-07T06:33:13.471Z,8.76
2023-11-07T06:35:41.043Z,8.75
2023-11-07T06:38:08.447Z,8.73
2023-11-07T06:40:35.680Z,8.75
2023-11-07T06:43:04.683Z,8.81
2023-11-07T06:45:31.284Z,8.94
2023-11-07T06:47:57.962Z,8.90
2023-11-07T06:50:24.758Z,8.83
2023-11-07T06:52:52.953Z,8.82
2023-11-07T06:55:24.552Z,8.83
2023-11-07T06:57:52.333Z,8.92
2023-11-07T07:00:22.310Z,8.84
2023-11-07T07:02:49.736Z,8.78
2023-11-07T07:05:17.410Z,8.87
2023-11-07T07:07:43.919Z,8.82
2023-11-07T07:10:11.618Z,8.80
2023-11-07T07:12:39.126Z,8.83
2023-11-07T07:15:10.814Z,8.98
2023-11-07T07:17:38.343Z,9.07
2023-11-07T07:20:12.494Z,9.06
2023-11-07T07:22:40.368Z,9.01
2023-11-07T07:25:07.503Z,8.95
2023-11-07T07:27:37.230Z,8.96
2023-11-07T07:30:06.923Z,8.97
2023-11-07T07:32:36.527Z,9.04
2023-11-07T07:35:03.247Z,9.10
2023-11-07T07:37:30.737Z,9.20
2023-11-07T07:39:57.192Z,9.20
2023-11-07T07:42:26.793Z,9.16
2023-11-07T07:44:53.319Z,9.23
2023-11-07T07:47:19.755Z,9.30
2023-11-07T07:49:46.323Z,9.34
2023-11-07T07:52:13.004Z,9.33
2023-11-07T07:57:10.146Z,9.27
2023-11-07T07:59:41.980Z,9.45
2023-11-07T08:02:08.716Z,9.49
2023-11-07T08:04:35.377Z,9.47
2023-11-07T08:07:01.897Z,9.59
2023-11-07T08:09:30.500Z,9.68
2023-11-07T08:12:01.387Z,9.69
2023-11-07T08:14:31.437Z,9.62
2023-11-07T08:16:57.899Z,9.74
2023-11-07T08:19:25.667Z,9.68
2023-11-07T08:21:52.182Z,9.57
2023-11-07T08:24:18.688Z,9.74
2023-11-07T08:26:45.167Z,9.66
2023-11-07T08:29:12.208Z,9.68
2023-11-07T08:31:40.092Z,9.84
2023-11-07T08:34:10.907Z,9.78
2023-11-07T08:36:43.735Z,9.90
2023-11-07T08:39:28.385Z,9.95
2023-11-07T08:41:56.207Z,9.85
2023-11-07T08:44:23.231Z,9.96
2023-11-07T08:46:49.917Z,9.98
2023-11-07T08:49:19.049Z,10.01
2023-11-07T08:51:51.299Z,9.98
2023-11-07T08:54:19.464Z,10.06
2023-11-07T08:56:50.201Z,10.17
2023-11-07T08:59:16.917Z,10.08
2023-11-07T09:01:43.598Z,10.08
2023-11-07T09:04:10.754Z,10.09
2023-11-07T09:06:41.639Z,10.20
2023-11-07T09:09:09.413Z,10.20
2023-11-07T09:11:36.221Z,10.29
2023-11-07T09:14:02.797Z,10.29
2023-11-07T09:16:30.204Z,10.30
2023-11-07T09:18:56.767Z,10.45
2023-11-07T09:21:23.374Z,10.41
2023-11-07T09:23:51.190Z,10.30
2023-11-07T09:26:18.663Z,10.38
2023-11-07T09:28:45.192Z,10.32
2023-11-07T09:31:13.339Z,10.25
2023-11-07T09:33:40.357Z,10.23
2023-11-07T09:36:08.123Z,10.20
2023-11-07T09:38:46.835Z,10.11
2023-11-07T09:41:18.788Z,10.16
2023-11-07T09:43:46.871Z,10.26
2023-11-07T09:46:14.539Z,10.41
2023-11-07T09:48:42.930Z,10.31
2023-11-07T09:51:11.368Z,10.35
2023-11-07T09:53:40.705Z,10.50
2023-11-07T09:56:07.790Z,10.51
2023-11-07T09:58:36.259Z,10.45
2023-11-07T10:01:05.678Z,10.46
2023-11-07T10:03:34.346Z,10.55
2023-11-07T10:06:01.881Z,10.48
2023-11-07T10:08:28.313Z,10.55
2023-11-07T10:11:10.813Z,10.51
2023-11-07T10:13:37.760Z,10.62
2023-11-07T10:16:18.065Z,10.53
2023-11-07T10:18:50.432Z,10.44
2023-11-07T10:21:30.867Z,10.59
2023-11-07T10:23:58.368Z,10.50
2023-11-07T10:26:28.061Z,10.59
2023-11-07T10:29:17.904Z,10.51
2023-11-07T10:31:59.114Z,10.57
2023-11-07T10:34:27.102Z,10.60
2023-11-07T10:36:53.688Z,10.61
2023-11-07T10:39:22.935Z,10.55
2023-11-07T10:41:49.518Z,10.56
2023-11-07T10:44:25.024Z,10.47
2023-11-07T10:46:53.564Z,10.62
2023-11-07T10:49:20.702Z,10.54
2023-11-07T10:51:49.300Z,10.40
2023-11-07T10:54:20.673Z,10.39
2023-11-07T10:56:49.088Z,10.52
2023-11-07T10:59:19.360Z,10.62
2023-11-07T11:01:47.497Z,10.66
2023-11-07T11:04:16.876Z,10.78
2023-11-07T11:06:49.524Z,10.81
2023-11-07T11:09:18.653Z,10.73
2023-11-07T11:11:50.875Z,10.90
2023-11-07T11:14:17.593Z,11.02
2023-11-07T11:16:46.188Z,11.20
2023-11-07T11:19:29.753Z,11.23
2023-11-07T11:22:19.853Z,11.24
2023-11-07T11:25:15.200Z,11.20
2023-11-07T11:27:46.713Z,11.25
2023-11-07T11:30:13.277Z,11.13
2023-11-07T11:32:44.680Z,11.16
2023-11-07T11:35:16.906Z,11.13
2023-11-07T11:38:22.338Z,11.09
2023-11-07T11:41:00.474Z,11.09
2023-11-07T11:43:35.100Z,11.11
2023-11-07T11:46:17.750Z,11.10
2023-11-07T11:48:56.327Z,11.01
2023-11-07T11:51:38.580Z,11.02
2023-11-07T11:54:09.828Z,10.96
2023-11-07T11:57:04.429Z,10.99
2023-11-07T11:59:49.452Z,11.00
2023-11-07T12:02:41.476Z,11.01
2023-11-07T12:05:19.325Z,11.04
2023-11-07T12:07:47.364Z,11.02
2023-11-07T12:10:15.105Z,11.08
2023-11-07T12:12:42.498Z,10.98
2023-11-07T12:15:09.386Z,10.88
2023-11-07T12:17:43.394Z,10.84
2023-11-07T12:20:15.447Z,10.85
2023-11-07T12:22:47.891Z,10.76
2023-11-07T12:25:15.680Z,10.70
2023-11-07T12:27:42.815Z,10.52
2023-11-07T12:30:16.716Z,10.48
2023-11-07T12:32:45.001Z,10.19
2023-11-07T12:35:38.482Z,10.13
2023-11-07T12:38:12.797Z,10.10
2023-11-07T12:40:41.320Z,9.99
2023-11-07T12:43:09.528Z,9.97
2023-11-07T12:45:38.350Z,10.13
2023-11-07T12:48:07.088Z,10.09
2023-11-07T12:50:35.870Z,10.09
2023-11-07T12:53:06.458Z,10.04
2023-11-07T12:55:38.939Z,9.99
2023-11-07T12:58:07.202Z,9.90
2023-11-07T13:00:57.655Z,9.83
2023-11-07T13:03:24.730Z,9.79
2023-11-07T13:06:13.558Z,9.73
2023-11-07T13:08:46.953Z,9.78
2023-11-07T13:11:18.050Z,9.75
2023-11-07T13:13:46.628Z,9.94
2023-11-07T13:16:13.650Z,9.87
2023-11-07T13:18:47.411Z,9.85
2023-11-07T13:21:14.811Z,9.98
2023-11-07T13:23:41.461Z,10.05
2023-11-07T13:26:09.423Z,9.93
2023-11-07T13:28:38.094Z,9.79
2023-11-07T13:31:08.833Z,9.73
2023-11-07T13:33:36.319Z,9.69
2023-11-07T13:36:05.256Z,9.75
2023-11-07T13:38:31.891Z,9.73
2023-11-07T13:40:58.415Z,9.77
2023-11-07T13:43:25.017Z,9.73
2023-11-07T13:45:54.773Z,9.94
2023-11-07T13:48:22.029Z,10.08
2023-11-07T13:50:48.653Z,10.29
2023-11-07T13:53:16.646Z,10.14
2023-11-07T13:55:43.262Z,10.06
2023-11-07T13:58:09.776Z,9.87
2023-11-07T14:00:36.546Z,9.96
2023-11-07T14:03:04.860Z,9.98
2023-11-07T14:05:31.945Z,9.89
2023-11-07T14:08:00.517Z,9.88
2023-11-07T14:10:32.857Z,9.85
2023-11-07T14:12:59.941Z,9.83
2023-11-07T14:15:36.835Z,9.85
2023-11-07T14:18:13.280Z,9.91
2023-11-07T14:20:50.498Z,9.94
2023-11-07T14:23:17.247Z,9.94
2023-11-07T14:25:44.146Z,9.85
2023-11-07T14:28:11.244Z,9.83
2023-11-07T14:30:45.952Z,9.99
2023-11-07T14:33:14.675Z,9.92
2023-11-07T14:35:41.669Z,9.92
2023-11-07T14:38:09.072Z,9.86
2023-11-07T14:40:36.751Z,9.86
2023-11-07T14:43:14.776Z,9.87
2023-11-07T14:45:43.989Z,9.82
2023-11-07T14:48:10.859Z,9.70
2023-11-07T14:50:39.674Z,9.66
2023-11-07T14:53:07.039Z,9.58
2023-11-07T14:55:36.030Z,9.40
2023-11-07T14:58:06.446Z,9.39
2023-11-07T15:00:40.201Z,9.30
2023-11-07T15:03:10.337Z,9.30
2023-11-07T15:05:39.826Z,9.18
2023-11-07T15:08:07.312Z,9.17
2023-11-07T15:10:34.610Z,9.24
2023-11-07T15:13:02.910Z,9.22
2023-11-07T15:15:30.671Z,9.18
2023-11-07T15:18:02.572Z,9.10
2023-11-07T15:20:32.698Z,9.08
2023-11-07T15:23:01.900Z,9.14
2023-11-07T15:25:31.755Z,9.02
2023-11-07T15:27:59.125Z,8.99
2023-11-07T15:30:25.815Z,9.02
2023-11-07T15:32:52.670Z,9.01
2023-11-07T15:35:19.940Z,9.06
2023-11-07T15:37:49.410Z,9.00
2023-11-07T15:40:19.709Z,8.99
2023-11-07T15:42:50.842Z,8.96
2023-11-07T15:45:21.595Z,8.96
2023-11-07T15:47:49.052Z,8.96
2023-11-07T15:50:17.291Z,8.95
2023-11-07T15:52:55.722Z,8.91
2023-11-07T15:55:31.092Z,8.96
2023-11-07T15:57:57.591Z,8.93
2023-11-07T16:00:27.353Z,8.87
2023-11-07T16:02:54.189Z,8.77
2023-11-07T16:05:20.794Z,8.78
2023-11-07T16:07:47.278Z,8.72
2023-11-07T16:10:13.824Z,8.69
2023-11-07T16:12:43.693Z,8.69
2023-11-07T16:15:11.081Z,8.62
2023-11-07T16:17:58.041Z,8.56
2023-11-07T16:20:24.672Z,8.52
2023-11-07T16:22:51.195Z,8.47
2023-11-07T16:25:18.216Z,8.44
2023-11-07T16:27:45.007Z,8.36
2023-11-07T16:30:12.365Z,8.36
2023-11-07T16:32:39.800Z,8.32
2023-11-07T16:35:06.783Z,8.30
2023-11-07T16:37:36.967Z,8.28
2023-11-07T16:40:15.908Z,8.27
2023-11-07T16:42:42.478Z,8.35
2023-11-07T16:45:12.478Z,8.25
2023-11-07T16:47:42.302Z,8.13
2023-11-07T16:50:09.507Z,8.12
2023-11-07T16:52:39.373Z,8.15
2023-11-07T16:55:14.279Z,8.23
2023-11-07T16:57:41.733Z,8.30
2023-11-07T17:00:12.607Z,8.34
2023-11-07T17:02:40.493Z,8.30
2023-11-07T17:05:07.667Z,8.31
2023-11-07T17:07:37.214Z,8.38
2023-11-07T17:10:04.642Z,8.28
2023-11-07T17:12:31.224Z,8.30
2023-11-07T17:14:57.767Z,8.23
2023-11-07T17:17:25.286Z,8.16
2023-11-07T17:19:52.632Z,8.37
2023-11-07T17:22:19.309Z,8.32
2023-11-07T17:24:45.802Z,8.26
2023-11-07T17:27:14.123Z,8.12
2023-11-07T17:29:41.200Z,8.20
2023-11-07T17:32:09.948Z,8.09
2023-11-07T17:34:39.198Z,8.13
2023-11-07T17:37:07.011Z,8.08
2023-11-07T17:39:33.631Z,8.11
2023-11-07T17:42:00.632Z,8.08
2023-11-07T17:44:27.688Z,8.14
2023-11-07T17:46:54.239Z,8.10
2023-11-07T17:49:20.714Z,8.18
2023-11-07T17:51:47.351Z,8.16
2023-11-07T17:54:14.230Z,8.11
2023-11-07T17:56:40.892Z,8.16
2023-11-07T17:59:12.038Z,8.14
2023-11-07T18:01:39.620Z,8.03
2023-11-07T18:04:07.291Z,8.02
2023-11-07T18:06:34.892Z,8.08
2023-11-07T18:09:05.509Z,7.94
2023-11-07T18:11:36.234Z,7.89
2023-11-07T18:14:04.940Z,7.87
2023-11-07T18:16:32.122Z,7.92
2023-11-07T18:18:59.862Z,7.84
2023-11-07T18:21:28.274Z,7.82
2023-11-07T18:23:55.171Z,7.92
2023-11-07T18:26:23.163Z,7.86
2023-11-07T18:28:51.689Z,7.78
2023-11-07T18:31:18.737Z,7.82
2023-11-07T18:33:49.257Z,7.76
2023-11-07T18:36:17.772Z,7.69
2023-11-07T18:38:44.649Z,7.78
2023-11-07T18:41:11.176Z,7.71
2023-11-07T18:43:38.525Z,7.78
2023-11-07T18:46:06.557Z,7.73
2023-11-07T18:48:34.359Z,7.63
2023-11-07T18:51:01.140Z,7.82
2023-11-07T18:53:37.013Z,7.77
2023-11-07T18:56:11.782Z,7.69
2023-11-07T18:58:38.369Z,7.65
2023-11-07T19:01:05.066Z,7.58
2023-11-07T19:03:31.657Z,7.52
2023-11-07T19:05:58.299Z,7.55
2023-11-07T19:08:24.844Z,7.45
2023-11-07T19:10:52.756Z,7.53
2023-11-07T19:13:19.197Z,7.41
2023-11-07T19:15:45.654Z,7.38
2023-11-07T19:18:13.394Z,7.46
2023-11-07T19:20:39.933Z,7.35
2023-11-07T19:23:06.632Z,7.41
2023-11-07T19:25:33.159Z,7.44
2023-11-07T19:28:00.441Z,7.41
2023-11-07T19:30:27.541Z,7.47
2023-11-07T19:32:54.332Z,7.35
2023-11-07T19:35:21.876Z,7.42
2023-11-07T19:37:49.455Z,7.45
2023-11-07T19:40:22.628Z,7.45
2023-11-07T19:42:51.222Z,7.44
2023-11-07T19:45:17.724Z,7.38
2023-11-07T19:47:45.283Z,7.39
2023-11-07T19:50:13.690Z,7.36
2023-11-07T19:52:41.087Z,7.33
2023-11-07T19:55:08.280Z,7.38
2023-11-07T19:57:34.905Z,7.39
2023-11-07T20:00:09.321Z,7.37
2023-11-07T20:02:38.769Z,7.37
2023-11-07T20:05:06.716Z,7.40
2023-11-07T20:07:40.472Z,7.40
2023-11-07T20:10:12.431Z,7.45
2023-11-07T20:12:39.509Z,7.42
2023-11-07T20:15:08.361Z,7.41
2023-11-07T20:17:35.813Z,7.41
2023-11-07T20:20:02.485Z,7.57
2023-11-07T20:22:29.611Z,7.52
2023-11-07T20:24:56.085Z,7.35
2023-11-07T20:27:22.619Z,7.41
2023-11-07T20:29:49.063Z,7.38
2023-11-07T20:32:15.506Z,7.38
2023-11-07T20:34:48.064Z,7.51
2023-11-07T20:37:14.844Z,7.47
2023-11-07T20:39:41.753Z,7.33
2023-11-07T20:42:10.076Z,7.42
2023-11-07T20:44:44.000Z,7.48
2023-11-07T20:47:11.048Z,7.41
2023-11-07T20:49:44.035Z,7.39
2023-11-07T20:52:22.514Z,7.43
2023-11-07T20:54:53.524Z,7.35
2023-11-07T20:57:22.472Z,7.33
2023-11-07T20:59:49.511Z,7.25
2023-11-07T21:02:15.973Z,7.26
2023-11-07T21:04:42.430Z,7.48
2023-11-07T21:07:09.037Z,7.37
2023-11-07T21:09:35.867Z,7.28
2023-11-07T21:12:03.106Z,7.56
2023-11-07T21:14:29.672Z,7.67
2023-11-07T21:16:56.709Z,7.61
2023-11-07T21:19:25.561Z,7.68
2023-11-07T21:22:00.256Z,7.63
2023-11-07T21:24:27.360Z,7.73
2023-11-07T21:26:54.031Z,7.76
2023-11-07T21:29:20.685Z,7.73
2023-11-07T21:31:48.512Z,7.77
2023-11-07T21:34:15.739Z,7.84
2023-11-07T21:36:44.247Z,7.82
2023-11-07T21:39:13.057Z,7.84
2023-11-07T21:41:39.755Z,7.82
2023-11-07T21:44:06.378Z,7.84
2023-11-07T21:46:32.893Z,7.76
2023-11-07T21:49:00.849Z,7.74
2023-11-07T21:51:28.077Z,7.66
2023-11-07T21:53:54.649Z,7.59
2023-11-07T21:56:22.329Z,7.65
2023-11-07T21:58:48.846Z,7.65
2023-11-07T22:01:17.099Z,7.58
2023-11-07T22:03:43.981Z,7.65
2023-11-07T22:06:10.534Z,7.60
2023-11-07T22:08:37.264Z,7.68
2023-11-07T22:11:04.240Z,7.65
2023-11-07T22:13:30.664Z,7.60
2023-11-07T22:15:57.118Z,7.69
2023-11-07T22:18:23.586Z,7.69
2023-11-07T22:20:50.286Z,7.59
2023-11-07T22:23:16.812Z,7.53
2023-11-07T22:25:43.309Z,7.57
2023-11-07T22:28:10.570Z,7.53
2023-11-07T22:30:37.367Z,7.51
2023-11-07T22:33:04.112Z,7.56
2023-11-07T22:35:32.070Z,7.61
2023-11-07T22:37:58.488Z,7.53
2023-11-07T22:40:24.934Z,7.44
2023-11-07T22:42:51.391Z,7.44
2023-11-07T22:45:19.243Z,7.50
2023-11-07T22:47:46.015Z,7.53
2023-11-07T22:50:12.639Z,7.51
2023-11-07T22:52:39.415Z,7.53
2023-11-07T22:55:06.541Z,7.62
2023-11-07T22:57:35.052Z,7.64
2023-11-07T23:00:01.661Z,7.63
2023-11-07T23:02:28.803Z,7.60
2023-11-07T23:04:55.741Z,7.64
2023-11-07T23:07:22.368Z,7.66
2023-11-07T23:09:50.303Z,7.66
2023-11-07T23:12:16.944Z,7.68
2023-11-07T23:14:43.391Z,7.66
2023-11-07T23:17:09.823Z,7.70
2023-11-07T23:19:36.415Z,7.73
2023-11-07T23:22:03.057Z,7.74
2023-11-07T23:24:29.517Z,7.73
2023-11-07T23:26:56.102Z,7.71
2023-11-07T23:29:24.001Z,7.69
2023-11-07T23:31:52.324Z,7.73
2023-11-07T23:34:18.816Z,7.83
2023-11-07T23:36:46.015Z,7.81
2023-11-07T23:39:13.089Z,7.78
2023-11-07T23:41:39.989Z,7.91
2023-11-07T23:44:06.691Z,7.85
2023-11-07T23:46:34.436Z,7.86
2023-11-07T23:49:01.312Z,7.90
2023-11-07T23:51:28.177Z,7.89
2023-11-07T23:53:54.837Z,7.95
2023-11-07T23:56:22.939Z,7.97
2023-11-07T23:58:49.332Z,8.03
